Time;durP1;ratioP1;P1;durP2;ratioP2;P2;SDS_P1;SDS_P2;PMS_P1;PMS_P2;Temp;Humidity;BMP_temperature;BMP_pressure;BME280_temperature;BME280_humidity;BME280_pressure;Samples;Min_cycle;Max_cycle;Signal;HPM_P1;HPM_P2
2023/09/09 05:12:58;;;;;;;;;21.25;15.75;;;;;33.62;36.30;101066.97;5091709;27;45489;-71
2023/09/09 05:15:23;;;;;;;;;16.00;16.00;;;;;34.07;35.68;101066.16;5075444;27;45549;-70
2023/09/09 05:17:50;;;;;;;;;14.00;14.00;;;;;34.29;35.77;101063.13;5075515;27;46746;-70
2023/09/09 05:20:15;;;;;;;;;14.50;14.25;;;;;34.61;34.93;101069.69;5076004;27;56188;-71
2023/09/09 05:22:40;;;;;;;;;15.75;15.75;;;;;34.73;34.79;101063.22;5075533;28;47965;-70
2023/09/09 05:25:06;;;;;;;;;18.00;17.00;;;;;34.83;34.82;101063.63;5075279;27;57226;-69
2023/09/09 05:27:32;;;;;;;;;20.25;19.00;;;;;34.94;34.22;101062.06;5075491;27;45232;-70
2023/09/09 05:29:57;;;;;;;;;24.00;18.75;;;;;35.02;34.05;101069.31;5075638;27;45259;-69
2023/09/09 05:32:22;;;;;;;;;14.75;14.25;;;;;35.12;34.04;101066.91;5075308;28;48008;-68
2023/09/09 05:34:48;;;;;;;;;16.50;15.75;;;;;35.22;33.87;101073.69;5075500;27;46718;-69
2023/09/09 05:37:13;;;;;;;;;14.75;14.75;;;;;35.11;34.60;101066.03;5075554;27;45277;-69
2023/09/09 05:39:38;;;;;;;;;11.50;11.50;;;;;35.11;34.55;101060.47;5075249;27;45373;-69
2023/09/09 05:42:06;;;;;;;;;15.25;14.50;;;;;35.01;34.00;101046.16;5075255;27;45499;-69
2023/09/09 05:44:33;;;;;;;;;14.50;14.50;;;;;35.21;34.01;101074.78;5075770;27;45384;-76
2023/09/09 05:46:58;;;;;;;;;15.00;15.00;;;;;35.27;33.76;101087.00;5074998;27;45369;-70
2023/09/09 05:49:23;;;;;;;;;17.00;16.25;;;;;35.23;33.88;101077.34;5075398;27;45372;-71
2023/09/09 05:51:49;;;;;;;;;16.25;16.00;;;;;35.26;33.80;101093.63;5074916;27;46047;-70
2023/09/09 05:54:15;;;;;;;;;18.25;15.75;;;;;35.23;33.57;101083.78;5074563;28;45354;-70
2023/09/09 05:56:40;;;;;;;;;15.00;13.75;;;;;35.33;33.89;101091.66;5074913;28;45162;-70
2023/09/09 05:59:08;;;;;;;;;14.75;14.75;;;;;35.38;33.77;101097.44;5074874;27;45213;-70
2023/09/09 06:01:33;;;;;;;;;14.75;13.50;;;;;35.37;33.82;101086.50;5073929;27;45368;-71
2023/09/09 06:03:59;;;;;;;;;10.50;8.50;;;;;35.30;34.03;101088.47;5074801;28;45625;-71
2023/09/09 06:06:24;;;;;;;;;16.25;15.50;;;;;35.30;33.53;101089.34;5074607;27;45422;-70
2023/09/09 06:08:50;;;;;;;;;18.75;15.25;;;;;35.27;33.51;101082.28;5072349;28;46958;-70
2023/09/09 06:11:15;;;;;;;;;19.75;15.25;;;;;35.31;33.87;101088.22;5079119;27;46091;-70
2023/09/09 06:13:40;;;;;;;;;14.00;14.00;;;;;35.30;34.02;101092.13;5081406;27;45551;-69
2023/09/09 06:16:06;;;;;;;;;14.00;14.00;;;;;35.27;33.71;101093.44;5079971;28;45345;-70
2023/09/09 06:18:31;;;;;;;;;12.25;12.25;;;;;35.28;33.77;101088.69;5080868;28;51127;-70
2023/09/09 06:20:57;;;;;;;;;10.25;9.25;;;;;35.21;33.99;101074.78;5080188;28;46147;-71
2023/09/09 06:23:23;;;;;;;;;15.50;15.50;;;;;35.32;33.53;101086.31;5081691;27;45325;-70
2023/09/09 06:25:49;;;;;;;;;13.75;13.75;;;;;35.37;33.56;101100.44;5081580;28;45351;-71
2023/09/09 06:28:15;;;;;;;;;13.00;12.00;;;;;35.40;33.83;101105.56;5081728;27;45453;-70
2023/09/09 06:30:43;;;;;;;;;21.00;16.25;;;;;35.38;33.79;101105.81;5081375;28;45129;-71
2023/09/09 06:33:08;;;;;;;;;17.50;16.25;;;;;35.41;33.82;101105.34;5081361;27;45207;-70
2023/09/09 06:35:34;;;;;;;;;15.00;15.00;;;;;35.44;33.59;101107.69;5081507;27;45594;-71
2023/09/09 06:37:59;;;;;;;;;14.50;13.25;;;;;35.50;33.50;101115.13;5069710;27;45496;-71
2023/09/09 06:40:24;;;;;;;;;15.00;13.00;;;;;35.51;33.14;101116.84;5080572;28;45367;-70
2023/09/09 06:42:50;;;;;;;;;14.00;14.00;;;;;35.48;33.97;101114.50;5081364;27;45423;-71
2023/09/09 06:45:15;;;;;;;;;17.75;16.25;;;;;35.57;33.87;101121.53;5081496;27;45386;-69
2023/09/09 06:47:41;;;;;;;;;12.75;12.75;;;;;35.59;33.71;101105.44;5081015;27;45308;-70
2023/09/09 06:50:07;;;;;;;;;14.75;14.75;;;;;35.63;33.45;101115.06;5080840;28;52045;-70
2023/09/09 06:52:32;;;;;;;;;13.25;13.25;;;;;35.62;33.27;101101.34;5081283;27;45479;-71
2023/09/09 06:54:57;;;;;;;;;11.50;11.50;;;;;35.71;33.22;101108.34;5080677;28;45436;-70
2023/09/09 06:57:23;;;;;;;;;13.00;12.50;;;;;35.79;32.61;101110.03;5080805;28;54622;-70
2023/09/09 06:59:48;;;;;;;;;17.75;14.75;;;;;35.85;33.28;101117.50;5080841;27;45346;-71
2023/09/09 07:02:13;;;;;;;;;13.50;13.50;;;;;35.87;32.59;101105.03;5080757;28;45332;-71
2023/09/09 07:04:39;;;;;;;;;12.50;12.50;;;;;35.92;33.14;101109.91;5065586;28;53086;-71
2023/09/09 07:07:04;;;;;;;;;10.00;10.00;;;;;35.96;32.90;101113.97;5079684;28;45422;-70
2023/09/09 07:09:29;;;;;;;;;14.00;14.00;;;;;35.98;33.07;101106.22;5076114;28;47082;-71
2023/09/09 07:11:54;;;;;;;;;17.00;15.25;;;;;35.97;32.40;101115.69;5079927;28;45172;-73
2023/09/09 07:14:20;;;;;;;;;13.50;12.25;;;;;35.95;32.78;101103.88;5071953;28;45485;-74
2023/09/09 07:16:46;;;;;;;;;12.50;12.00;;;;;36.01;32.68;101109.41;5081263;27;45429;-75
2023/09/09 07:19:11;;;;;;;;;13.50;11.25;;;;;36.05;32.68;101107.03;5096606;27;46920;-74
2023/09/09 07:21:36;;;;;;;;;11.75;11.75;;;;;36.09;32.70;101111.03;5080981;27;45364;-73
2023/09/09 07:24:02;;;;;;;;;15.50;13.75;;;;;36.09;32.73;101105.47;5078547;28;45256;-73
2023/09/09 07:26:27;;;;;;;;;14.25;12.25;;;;;36.17;32.81;101119.13;5079527;28;46828;-72
2023/09/09 07:28:53;;;;;;;;;9.75;9.75;;;;;36.16;32.17;101106.25;5080589;27;46254;-76
2023/09/09 07:31:18;;;;;;;;;9.25;9.25;;;;;36.16;32.34;101102.59;5080555;27;45287;-73
2023/09/09 07:33:44;;;;;;;;;11.75;11.75;;;;;36.15;32.18;101107.38;5080507;28;45188;-72
2023/09/09 07:36:09;;;;;;;;;12.50;12.50;;;;;36.23;32.57;101106.25;5081031;27;45314;-75
2023/09/09 07:38:35;;;;;;;;;9.25;7.50;;;;;36.06;31.82;101119.03;5082035;27;45430;-72
2023/09/09 07:41:02;;;;;;;;;12.00;10.50;;;;;35.90;32.27;101109.31;5078680;27;45561;-74
2023/09/09 07:43:27;;;;;;;;;12.50;11.00;;;;;35.91;32.11;101114.63;5079909;27;45325;-74
2023/09/09 07:45:54;;;;;;;;;11.75;9.75;;;;;35.95;32.12;101115.06;5080382;28;48358;-74
2023/09/09 07:48:20;;;;;;;;;13.75;11.25;;;;;36.05;31.98;101118.19;5080124;27;45440;-75
2023/09/09 07:50:54;;;;;;;;;10.25;10.25;;;;;36.01;32.03;101122.50;5080292;27;45238;-73
2023/09/09 07:53:20;;;;;;;;;13.50;12.00;;;;;35.97;32.03;101126.84;5080181;27;45481;-74
2023/09/09 07:55:49;;;;;;;;;12.75;10.25;;;;;35.85;32.01;101128.66;5080369;27;45188;-73
2023/09/09 07:58:18;;;;;;;;;13.25;11.75;;;;;35.86;31.97;101114.47;5079948;27;46568;-74
2023/09/09 08:00:44;;;;;;;;;13.50;11.75;;;;;35.95;32.60;101115.06;5080220;27;45426;-73
2023/09/09 08:03:11;;;;;;;;;16.00;11.00;;;;;35.92;32.04;101110.78;5075673;27;45251;-73
2023/09/09 08:05:39;;;;;;;;;12.75;11.00;;;;;35.98;31.45;101123.81;5070590;28;45322;-73
2023/09/09 08:08:06;;;;;;;;;13.25;12.75;;;;;35.94;31.56;101122.56;5079703;27;46361;-73
2023/09/09 08:10:32;;;;;;;;;14.25;11.75;;;;;35.96;31.77;101125.13;5079861;27;45304;-72
2023/09/09 08:12:58;;;;;;;;;9.25;9.25;;;;;36.06;31.68;101125.47;5074620;28;45345;-73
2023/09/09 08:15:25;;;;;;;;;12.00;11.50;;;;;36.15;31.44;101134.44;5070932;28;45478;-72
2023/09/09 08:17:51;;;;;;;;;12.25;9.00;;;;;36.14;31.44;101130.78;5079624;28;46196;-73
2023/09/09 08:20:17;;;;;;;;;15.50;13.75;;;;;36.11;31.71;101122.84;5079504;28;45293;-73
2023/09/09 08:22:42;;;;;;;;;13.75;10.75;;;;;36.15;31.71;101124.13;5079094;28;45717;-73
2023/09/09 08:25:08;;;;;;;;;12.50;10.75;;;;;36.18;31.07;101129.22;5078630;27;45311;-74
2023/09/09 08:27:33;;;;;;;;;8.75;8.75;;;;;36.24;30.76;101121.91;5079679;28;45227;-74
2023/09/09 08:29:59;;;;;;;;;12.25;11.00;;;;;36.32;30.42;101127.19;5079565;28;55241;-74
2023/09/09 08:32:24;;;;;;;;;6.25;6.25;;;;;36.30;30.57;101129.38;5079615;28;45433;-74
2023/09/09 08:34:54;;;;;;;;;12.00;11.75;;;;;36.29;30.71;101133.22;5080035;27;45456;-73
2023/09/09 08:37:20;;;;;;;;;11.25;9.50;;;;;36.25;30.57;101130.03;5079313;27;45314;-74
2023/09/09 08:39:45;;;;;;;;;11.50;11.50;;;;;36.27;30.92;101111.13;5077289;28;45355;-74
2023/09/09 08:42:34;;;;;;;;;10.75;10.50;;;;;36.47;30.72;101136.06;5076072;28;45551;-74
2023/09/09 08:45:11;;;;;;;;;13.00;13.00;;;;;36.44;30.86;101127.28;5078580;27;45989;-74
2023/09/09 08:47:38;;;;;;;;;11.50;11.25;;;;;36.55;31.11;101134.91;5077808;27;46077;-74
2023/09/09 08:50:05;;;;;;;;;10.25;10.25;;;;;36.56;30.82;101136.63;5079048;27;45509;-73
2023/09/09 08:52:30;;;;;;;;;10.00;10.00;;;;;36.60;31.47;101123.88;5078790;27;45417;-73
2023/09/09 08:54:57;;;;;;;;;17.50;13.00;;;;;36.71;31.08;101134.31;5079148;27;45221;-73
2023/09/09 08:57:23;;;;;;;;;9.00;7.00;;;;;36.68;30.19;101137.56;5078775;27;46241;-73
2023/09/09 08:59:49;;;;;;;;;9.25;9.25;;;;;36.58;30.22;101123.28;5078753;27;45685;-74
2023/09/09 09:02:15;;;;;;;;;12.00;11.25;;;;;36.69;29.82;101142.06;5078122;27;45472;-71
2023/09/09 09:04:42;;;;;;;;;10.75;10.25;;;;;36.71;30.65;101124.00;5071920;27;45364;-73
2023/09/09 09:07:07;;;;;;;;;11.00;11.00;;;;;36.81;30.32;101123.47;5077554;28;48637;-72
2023/09/09 09:09:34;;;;;;;;;11.75;9.25;;;;;36.75;30.23;101114.03;5078864;27;45354;-72
2023/09/09 09:12:01;;;;;;;;;11.50;9.00;;;;;36.93;30.46;101126.28;5078756;27;45326;-74
2023/09/09 09:14:26;;;;;;;;;12.00;10.50;;;;;36.93;29.58;101129.94;5078696;27;45680;-73
2023/09/09 09:16:53;;;;;;;;;14.00;13.00;;;;;36.94;30.29;101126.06;5078526;27;45285;-72
2023/09/09 09:19:26;;;;;;;;;11.25;9.50;;;;;36.98;30.26;101123.66;5078419;28;45338;-72
2023/09/09 09:21:52;;;;;;;;;12.75;11.25;;;;;37.09;30.25;101132.09;5076012;28;45357;-73
2023/09/09 09:24:28;;;;;;;;;13.00;13.00;;;;;37.00;29.60;101118.72;5078056;28;45466;-72
2023/09/09 09:26:55;;;;;;;;;9.50;9.50;;;;;37.04;29.29;101131.09;5076165;28;45331;-72
2023/09/09 09:29:20;;;;;;;;;8.25;8.25;;;;;37.13;29.32;101135.28;5078406;28;45388;-73
2023/09/09 09:31:53;;;;;;;;;12.00;11.50;;;;;37.09;29.27;101126.50;5078465;27;45340;-72
2023/09/09 09:34:19;;;;;;;;;9.25;9.25;;;;;37.20;29.35;101132.44;5078265;27;45425;-74
2023/09/09 09:36:46;;;;;;;;;13.50;13.50;;;;;37.29;29.53;101126.28;5078380;27;47236;-73
2023/09/09 09:39:11;;;;;;;;;11.75;11.75;;;;;37.27;29.42;101120.06;5078665;27;45432;-73
2023/09/09 09:41:40;;;;;;;;;12.25;12.25;;;;;37.26;29.27;101125.91;5078684;27;45368;-73
2023/09/09 09:44:17;;;;;;;;;13.75;12.25;;;;;37.31;29.30;101137.22;5078953;27;45468;-72
2023/09/09 09:46:42;;;;;;;;;14.00;12.50;;;;;37.22;28.92;101133.06;5077845;27;45255;-73
2023/09/09 09:49:08;;;;;;;;;14.00;14.00;;;;;37.22;28.82;101122.72;5081473;27;45276;-73
2023/09/09 09:51:43;;;;;;;;;10.75;10.75;;;;;37.35;28.68;101127.25;5082144;28;45344;-73
2023/09/09 09:54:08;;;;;;;;;11.00;10.75;;;;;37.43;28.76;101122.19;5082266;27;45242;-73
2023/09/09 09:56:35;;;;;;;;;10.75;10.75;;;;;37.49;28.57;101115.66;5080751;27;45272;-74
2023/09/09 09:59:01;;;;;;;;;14.50;13.50;;;;;37.60;28.55;101127.16;5078614;28;45366;-72
2023/09/09 10:01:27;;;;;;;;;12.25;12.25;;;;;37.72;29.16;101130.81;5081424;28;45424;-73
2023/09/09 10:04:04;;;;;;;;;15.00;13.50;;;;;37.79;28.58;101129.63;5071891;27;45481;-74
2023/09/09 10:06:33;;;;;;;;;15.25;14.00;;;;;37.72;28.55;101128.88;5079449;28;47020;-73
2023/09/09 10:09:19;;;;;;;;;16.25;16.00;;;;;37.71;27.90;101121.56;5081486;27;45224;-74
2023/09/09 10:12:01;;;;;;;;;14.25;13.25;;;;;37.82;28.61;101120.75;5079996;27;45520;-74
2023/09/09 10:14:28;;;;;;;;;14.25;13.75;;;;;37.91;28.11;101126.00;5080766;27;45388;-73
2023/09/09 10:16:54;;;;;;;;;19.25;16.75;;;;;38.02;28.37;101128.81;5080610;27;46523;-71
2023/09/09 10:19:21;;;;;;;;;14.75;12.25;;;;;37.93;27.30;101121.88;5080865;28;45444;-72
2023/09/09 10:21:49;;;;;;;;;13.25;11.75;;;;;37.97;27.28;101123.09;5080907;28;45405;-71
2023/09/09 10:24:15;;;;;;;;;11.25;11.25;;;;;38.07;27.46;101120.56;5080053;28;46944;-73
2023/09/09 10:26:41;;;;;;;;;12.75;12.75;;;;;38.17;27.35;101125.56;5081376;27;46101;-74
2023/09/09 10:29:07;;;;;;;;;12.50;12.50;;;;;38.12;26.89;101109.47;5080971;28;45371;-70
2023/09/09 10:31:35;;;;;;;;;16.25;14.50;;;;;38.15;26.42;101110.97;5081202;27;45334;-72
2023/09/09 10:34:01;;;;;;;;;11.75;11.75;;;;;38.28;26.70;101112.69;5080647;27;45381;-73
2023/09/09 10:36:29;;;;;;;;;12.75;11.75;;;;;38.31;26.70;101115.81;5081188;28;45982;-73
2023/09/09 10:38:56;;;;;;;;;13.75;13.75;;;;;38.44;26.43;101112.78;5080785;27;45365;-73
2023/09/09 10:41:21;;;;;;;;;15.25;14.75;;;;;38.46;26.22;101110.56;5081154;28;45276;-72
2023/09/09 10:43:47;;;;;;;;;15.50;15.25;;;;;38.62;26.18;101109.03;5080351;28;45256;-74
2023/09/09 10:46:13;;;;;;;;;11.00;10.25;;;;;38.71;26.28;101110.31;5080484;28;46368;-73
2023/09/09 10:48:39;;;;;;;;;18.25;16.50;;;;;38.78;26.25;101110.19;5080522;27;45473;-75
2023/09/09 10:51:06;;;;;;;;;14.00;14.00;;;;;38.94;25.79;101106.63;5079725;28;45289;-74
2023/09/09 10:53:32;;;;;;;;;12.00;11.25;;;;;38.99;25.89;101095.53;5080700;27;45535;-75
2023/09/09 10:56:21;;;;;;;;;14.00;11.50;;;;;39.09;25.39;101086.47;5080625;27;45360;-74
2023/09/09 10:58:50;;;;;;;;;13.00;13.00;;;;;39.31;25.64;101105.16;5068582;28;45279;-73
2023/09/09 11:01:25;;;;;;;;;14.75;14.75;;;;;39.50;25.56;101085.31;5080122;27;45573;-74
2023/09/09 11:03:52;;;;;;;;;13.50;13.50;;;;;39.68;24.86;101091.56;5080198;27;45524;-74
2023/09/09 11:06:25;;;;;;;;;12.25;12.25;;;;;39.81;25.43;101089.53;5080022;28;45524;-76
2023/09/09 11:08:56;;;;;;;;;14.25;13.00;;;;;39.87;24.68;101092.19;5080703;27;45412;-73
2023/09/09 11:11:25;;;;;;;;;10.00;10.00;;;;;39.70;23.92;101077.28;5078199;28;45319;-62
2023/09/09 11:14:04;;;;;;;;;13.50;13.50;;;;;39.80;24.08;101082.22;5080035;27;45579;-64
2023/09/09 11:16:40;;;;;;;;;11.75;10.50;;;;;39.82;23.74;101080.84;5067548;28;46270;-63
2023/09/09 11:19:07;;;;;;;;;13.50;11.25;;;;;39.90;24.61;101074.00;5080689;27;45200;-62
2023/09/09 11:21:34;;;;;;;;;17.00;12.50;;;;;39.85;24.58;101073.88;5078898;27;45377;-62
2023/09/09 11:24:02;;;;;;;;;14.75;14.00;;;;;39.95;24.15;101071.25;5079325;27;45379;-61
2023/09/09 11:26:28;;;;;;;;;11.75;11.75;;;;;39.94;23.66;101072.34;5080000;27;46778;-63
2023/09/09 11:28:54;;;;;;;;;15.00;13.25;;;;;40.00;23.38;101069.38;5080121;27;45372;-61
2023/09/09 11:31:19;;;;;;;;;12.75;12.75;;;;;39.90;22.75;101071.19;5080063;27;45390;-62
2023/09/09 11:33:45;;;;;;;;;12.25;12.25;;;;;40.14;23.14;101075.50;5080221;27;45501;-63
2023/09/09 11:36:15;;;;;;;;;12.75;12.75;;;;;40.14;23.17;101069.03;5080271;28;45405;-63
2023/09/09 11:38:41;;;;;;;;;12.50;10.25;;;;;40.27;23.75;101069.53;5080344;27;45393;-62
2023/09/09 11:41:07;;;;;;;;;14.50;12.25;;;;;40.30;22.78;101063.41;5079799;27;45425;-64
2023/09/09 11:43:32;;;;;;;;;11.50;11.50;;;;;40.33;21.98;101065.69;5080155;27;46358;-63
2023/09/09 11:45:58;;;;;;;;;13.00;13.00;;;;;40.18;22.65;101064.56;5080168;27;45414;-63
2023/09/09 11:48:24;;;;;;;;;15.25;11.25;;;;;40.36;22.98;101065.16;5079620;27;45311;-62
2023/09/09 11:50:50;;;;;;;;;12.75;11.00;;;;;40.53;22.83;101055.84;5078898;28;45413;-62
2023/09/09 11:53:19;;;;;;;;;12.50;11.25;;;;;40.64;22.49;101061.34;5080080;27;45403;-62
2023/09/09 11:55:44;;;;;;;;;12.25;12.00;;;;;40.71;21.78;101064.84;5080150;27;45342;-63
2023/09/09 11:58:09;;;;;;;;;10.75;10.75;;;;;40.80;22.80;101046.38;5079879;27;45317;-63
2023/09/09 12:00:35;;;;;;;;;10.00;10.00;;;;;40.96;22.61;101046.56;5079516;28;46010;-63
2023/09/09 12:03:00;;;;;;;;;13.75;11.50;;;;;41.00;22.77;101051.41;5078602;28;45365;-64
2023/09/09 12:05:30;;;;;;;;;14.00;14.00;;;;;41.11;21.99;101052.38;5074274;27;46076;-63
2023/09/09 12:07:58;;;;;;;;;16.75;15.50;;;;;41.27;22.46;101045.78;5075950;28;45473;-61
2023/09/09 12:10:27;;;;;;;;;12.00;12.00;;;;;41.33;22.64;101041.94;5077694;28;45454;-62
2023/09/09 12:12:53;;;;;;;;;12.00;11.00;;;;;41.42;22.17;101043.16;5078893;27;45508;-63
2023/09/09 12:15:19;;;;;;;;;13.50;11.25;;;;;41.53;21.94;101042.13;5077763;27;45413;-62
2023/09/09 12:17:44;;;;;;;;;11.00;11.00;;;;;41.66;21.63;101045.63;5079078;27;45441;-62
2023/09/09 12:20:10;;;;;;;;;12.25;11.75;;;;;41.70;21.54;101036.38;5079803;27;45391;-65
2023/09/09 12:22:42;;;;;;;;;13.00;13.00;;;;;41.87;21.44;101041.84;5079366;28;45827;-62
2023/09/09 12:25:31;;;;;;;;;12.00;11.00;;;;;42.01;21.13;101039.44;5079356;27;45423;-62
2023/09/09 12:27:56;;;;;;;;;11.00;11.00;;;;;42.05;21.22;101047.06;5078562;27;45354;-63
2023/09/09 12:30:35;;;;;;;;;12.25;10.50;;;;;42.27;21.14;101046.94;5076427;28;45230;-62
2023/09/09 12:33:05;;;;;;;;;12.00;11.00;;;;;42.39;20.61;101044.78;5079222;27;45461;-63
2023/09/09 12:35:41;;;;;;;;;15.00;11.00;;;;;42.55;20.89;101037.22;5078539;27;45308;-62
2023/09/09 12:38:07;;;;;;;;;9.00;8.25;;;;;42.65;21.04;101038.13;5076218;28;45215;-63
2023/09/09 12:41:02;;;;;;;;;12.00;12.00;;;;;42.73;20.92;101041.53;5078822;28;45334;-63
2023/09/09 12:43:28;;;;;;;;;12.75;10.25;;;;;42.85;20.12;101042.19;5077827;28;45317;-63
2023/09/09 12:45:56;;;;;;;;;11.00;11.00;;;;;42.83;20.78;101036.81;5078908;27;46111;-63
2023/09/09 12:48:21;;;;;;;;;10.75;10.75;;;;;42.91;20.23;101046.72;5077611;27;45460;-63
2023/09/09 12:50:48;;;;;;;;;12.00;12.00;;;;;42.97;20.62;101037.97;5078569;28;45690;-63
2023/09/09 12:53:13;;;;;;;;;12.75;11.75;;;;;42.99;20.03;101032.91;5078522;27;45341;-62
2023/09/09 12:55:39;;;;;;;;;10.75;9.50;;;;;43.00;20.07;101028.97;5078520;27;46125;-64
2023/09/09 12:58:04;;;;;;;;;12.75;12.25;;;;;43.12;19.89;101031.53;5078197;27;45421;-62
2023/09/09 13:00:30;;;;;;;;;13.75;11.75;;;;;43.25;20.09;101035.81;5078930;28;45353;-62
2023/09/09 13:02:55;;;;;;;;;12.25;10.75;;;;;43.33;19.45;101036.09;5078333;27;45363;-63
2023/09/09 13:05:21;;;;;;;;;13.25;10.50;;;;;43.43;19.54;101029.63;5078517;27;45470;-63
2023/09/09 13:07:47;;;;;;;;;11.25;11.25;;;;;43.47;19.33;101027.94;5076843;28;45439;-63
2023/09/09 13:10:13;;;;;;;;;10.00;10.00;;;;;43.39;19.93;101018.03;5078432;27;45458;-62
2023/09/09 13:12:38;;;;;;;;;11.50;11.50;;;;;43.53;19.34;101031.59;5078302;28;45326;-63
2023/09/09 13:15:04;;;;;;;;;11.00;11.00;;;;;43.57;19.74;101039.25;5077645;28;50811;-63
2023/09/09 13:17:29;;;;;;;;;10.50;9.25;;;;;43.73;18.66;101032.47;5078023;28;45325;-63
2023/09/09 13:19:54;;;;;;;;;10.50;10.50;;;;;43.87;19.33;101026.25;5078166;27;45683;-63
2023/09/09 13:22:20;;;;;;;;;11.00;10.00;;;;;43.86;18.82;101038.69;5078227;28;59262;-62
2023/09/09 13:24:45;;;;;;;;;9.50;9.50;;;;;43.95;19.69;101014.41;5081745;28;46007;-63
2023/09/09 13:27:10;;;;;;;;;12.50;10.75;;;;;44.15;18.51;101019.16;5081388;28;52301;-63
2023/09/09 13:29:36;;;;;;;;;9.00;7.25;;;;;44.22;18.51;101012.06;5081715;28;45355;-64
2023/09/09 13:32:02;;;;;;;;;10.00;10.00;;;;;44.43;18.32;101016.53;5088294;27;45834;-64
2023/09/09 13:34:29;;;;;;;;;9.00;9.00;;;;;44.59;18.16;101019.28;5081824;28;45400;-63
2023/09/09 13:36:54;;;;;;;;;10.75;9.75;;;;;44.57;17.59;101013.09;5081425;27;45549;-63
2023/09/09 13:39:19;;;;;;;;;8.75;8.75;;;;;44.62;17.30;101011.09;5080345;28;45352;-63
2023/09/09 13:41:45;;;;;;;;;10.75;10.75;;;;;44.73;16.26;101000.59;5081050;28;60120;-63
2023/09/09 13:44:11;;;;;;;;;13.50;11.00;;;;;44.63;17.20;101018.44;5080437;28;46062;-63
2023/09/09 13:46:36;;;;;;;;;11.50;10.50;;;;;44.70;17.93;101009.63;5081156;27;45425;-63
2023/09/09 13:49:02;;;;;;;;;10.75;10.75;;;;;44.92;17.75;101006.44;5081687;28;49846;-63
2023/09/09 13:51:27;;;;;;;;;11.25;11.00;;;;;45.15;17.26;101000.09;5081798;27;45354;-63
2023/09/09 13:53:53;;;;;;;;;11.75;9.75;;;;;45.34;16.56;101011.56;5081896;27;45294;-63
2023/09/09 13:56:18;;;;;;;;;7.25;7.25;;;;;45.41;16.83;101003.56;5081888;27;45344;-63
2023/09/09 13:58:44;;;;;;;;;13.00;12.25;;;;;45.57;16.82;101002.31;5082157;27;45475;-64
2023/09/09 14:01:09;;;;;;;;;10.00;5.25;;;;;45.35;16.47;101007.56;5081436;28;45359;-62
2023/09/09 14:03:34;;;;;;;;;9.00;7.75;;;;;45.52;16.12;101002.34;5081688;28;48178;-64
2023/09/09 14:06:00;;;;;;;;;9.50;7.50;;;;;45.54;16.15;101005.72;5081626;27;45393;-63
2023/09/09 14:08:25;;;;;;;;;9.00;9.00;;;;;45.59;16.17;101003.72;5081654;27;45302;-63
2023/09/09 14:10:51;;;;;;;;;9.25;9.25;;;;;45.49;15.80;101000.97;5081139;27;45579;-63
2023/09/09 14:13:16;;;;;;;;;11.75;10.75;;;;;45.59;16.01;100989.56;5081691;27;45402;-63
2023/09/09 14:15:41;;;;;;;;;10.25;10.25;;;;;45.81;15.65;100991.88;5081235;27;47229;-64
2023/09/09 14:18:06;;;;;;;;;10.00;10.00;;;;;45.95;15.72;100992.88;5081203;27;49020;-63
2023/09/09 14:20:32;;;;;;;;;10.25;10.25;;;;;46.10;15.76;100996.72;5081486;28;45259;-63
2023/09/09 14:22:58;;;;;;;;;6.75;6.75;;;;;46.06;15.53;100993.63;5081549;27;46432;-64
2023/09/09 14:25:23;;;;;;;;;9.25;8.00;;;;;46.22;15.50;100991.44;5081422;27;46256;-63
2023/09/09 14:27:48;;;;;;;;;9.25;8.75;;;;;46.22;15.92;100988.59;5081583;27;45337;-63
2023/09/09 14:30:14;;;;;;;;;9.25;9.25;;;;;46.24;15.38;100987.19;5080943;28;55384;-63
2023/09/09 14:32:39;;;;;;;;;8.25;8.00;;;;;46.32;15.84;100975.19;5081178;28;45418;-63
2023/09/09 14:35:05;;;;;;;;;11.00;11.00;;;;;46.25;15.18;100986.06;5079586;28;45376;-63
2023/09/09 14:37:31;;;;;;;;;8.00;6.75;;;;;46.24;15.21;100987.19;5081512;27;45354;-64
2023/09/09 14:39:56;;;;;;;;;9.00;9.00;;;;;46.36;15.17;100983.94;5078233;27;45662;-63
2023/09/09 14:42:22;;;;;;;;;11.50;8.00;;;;;46.31;15.36;100976.31;5076868;27;48524;-63
2023/09/09 14:44:48;;;;;;;;;8.75;8.25;;;;;46.05;15.88;100979.72;5077232;28;45336;-62
2023/09/09 14:47:13;;;;;;;;;11.00;9.25;;;;;46.35;15.60;100985.09;5079020;28;45429;-64
2023/09/09 14:49:39;;;;;;;;;9.25;9.25;;;;;46.31;15.60;100964.13;5072676;27;45967;-63
2023/09/09 14:52:06;;;;;;;;;9.00;9.00;;;;;46.57;15.81;100974.00;5080328;27;46279;-62
2023/09/09 14:54:32;;;;;;;;;9.00;9.00;;;;;46.44;15.24;100971.91;5080562;28;45394;-61
2023/09/09 14:56:57;;;;;;;;;7.75;7.75;;;;;46.30;15.45;100974.63;5073328;27;45430;-62
2023/09/09 14:59:22;;;;;;;;;9.25;8.00;;;;;46.16;15.48;100969.97;5080147;28;50848;-61
2023/09/09 15:01:47;;;;;;;;;9.50;8.50;;;;;45.99;15.95;100969.63;5079292;28;62500;-62
2023/09/09 15:04:13;;;;;;;;;9.25;9.25;;;;;45.96;15.77;100965.38;5069642;28;45472;-61
2023/09/09 15:06:38;;;;;;;;;9.00;9.00;;;;;45.88;16.02;100978.22;5080819;28;45414;-62
2023/09/09 15:09:04;;;;;;;;;0.00;0.00;;;;;45.90;15.44;100966.59;5080383;27;45966;-63
2023/09/09 15:11:30;;;;;;;;;11.25;10.75;;;;;45.89;16.26;100964.91;5077209;27;45603;-61
2023/09/09 15:13:55;;;;;;;;;10.50;9.25;;;;;45.95;16.82;100973.03;5076558;28;45408;-62
2023/09/09 15:16:21;;;;;;;;;8.25;8.25;;;;;45.85;16.75;100960.97;5075703;27;45455;-62
2023/09/09 15:18:46;;;;;;;;;7.50;7.50;;;;;45.97;16.33;100972.75;5075210;27;45607;-63
2023/09/09 15:21:12;;;;;;;;;9.25;9.25;;;;;45.94;16.39;100962.84;5079707;27;45363;-62
2023/09/09 15:23:37;;;;;;;;;11.50;10.25;;;;;45.88;16.39;100966.88;5080422;27;45480;-62
2023/09/09 15:26:03;;;;;;;;;9.25;8.25;;;;;45.88;15.78;100968.88;5079696;27;45524;-62
2023/09/09 15:28:28;;;;;;;;;10.75;9.25;;;;;45.80;15.81;100976.00;5080850;27;45405;-61
2023/09/09 15:30:56;;;;;;;;;9.00;9.00;;;;;45.72;16.36;100973.81;5086574;27;46248;-63
2023/09/09 15:33:22;;;;;;;;;10.00;9.00;;;;;45.70;15.87;100967.59;5079128;27;45562;-61
2023/09/09 15:35:54;;;;;;;;;7.50;7.50;;;;;45.69;15.80;100965.06;5079515;27;45461;-61
2023/09/09 15:40:55;;;;;;;;;9.00;9.00;;;;;45.72;15.51;100964.47;1414081;25;46117;-73
2023/09/09 15:43:20;;;;;;;;;10.00;9.50;;;;;45.75;16.18;100972.41;5052280;28;47161;-75
2023/09/09 15:45:48;;;;;;;;;10.25;9.25;;;;;45.70;15.92;100975.25;5034361;28;45420;-74
2023/09/09 15:48:13;;;;;;;;;10.75;9.25;;;;;45.73;16.08;100974.69;5034058;28;45249;-72
2023/09/09 15:50:39;;;;;;;;;8.50;8.00;;;;;45.56;15.48;100972.28;5034809;28;45931;-75
2023/09/09 15:53:05;;;;;;;;;9.00;9.00;;;;;45.56;16.26;100970.31;5051764;28;45369;-72
2023/09/09 15:55:30;;;;;;;;;9.50;9.50;;;;;45.59;16.19;100974.53;5054092;28;49883;-74
2023/09/09 15:57:55;;;;;;;;;9.00;8.00;;;;;45.57;16.58;100974.84;5035768;28;45411;-73
2023/09/09 16:00:21;;;;;;;;;11.50;10.00;;;;;45.62;16.31;100973.94;5029148;28;46364;-73
2023/09/09 16:02:47;;;;;;;;;11.75;10.50;;;;;45.62;16.15;100967.41;5034116;28;45346;-75
2023/09/09 16:05:13;;;;;;;;;11.00;9.25;;;;;45.56;15.78;100970.31;5034788;28;45486;-74
2023/09/09 16:07:40;;;;;;;;;11.25;9.25;;;;;45.54;15.86;100969.75;5034462;28;45450;-74
2023/09/09 16:10:07;;;;;;;;;10.50;10.50;;;;;45.50;16.11;100977.16;5034155;28;46042;-74
2023/09/09 16:12:32;;;;;;;;;10.25;8.00;;;;;45.55;15.84;100971.44;5034519;28;45635;-74
2023/09/09 16:14:57;;;;;;;;;9.00;9.00;;;;;45.62;16.07;100978.75;5033658;28;45541;-72
2023/09/09 16:17:24;;;;;;;;;9.50;9.00;;;;;45.54;16.26;100978.25;5034757;28;45486;-74
2023/09/09 16:19:49;;;;;;;;;11.75;10.00;;;;;45.48;17.15;100962.47;5034351;28;46442;-74
2023/09/09 16:22:15;;;;;;;;;11.25;11.25;;;;;45.51;16.25;100981.66;5034650;28;45377;-73
2023/09/09 16:24:40;;;;;;;;;10.00;10.00;;;;;45.62;16.34;100984.41;5033775;28;46978;-75